createdAt,value
2023-04-27T05:03:30.953Z,500.00
2023-04-27T05:04:31.926Z,500.00
2023-04-27T05:05:31.882Z,500.00
2023-04-27T05:06:31.917Z,500.00
2023-04-27T05:07:30.947Z,500.00
2023-04-27T05:08:32.000Z,500.00
2023-04-27T05:09:32.021Z,400.00
2023-04-27T05:10:32.018Z,400.00
2023-04-27T05:11:31.011Z,400.00
2023-04-27T05:12:32.058Z,400.00
2023-04-27T05:13:32.133Z,400.00
2023-04-27T05:14:32.182Z,400.00
2023-04-27T05:15:32.183Z,400.00
2023-04-27T05:16:32.300Z,400.00
2023-04-27T05:17:32.366Z,400.00
2023-04-27T05:18:31.453Z,400.00
2023-04-27T05:19:32.501Z,400.00
2023-04-27T05:20:31.519Z,400.00
2023-04-27T05:21:32.594Z,400.00
2023-04-27T05:22:32.656Z,400.00
2023-04-27T05:23:32.742Z,400.00
2023-04-27T05:24:32.774Z,400.00
2023-04-27T05:25:31.830Z,400.00
2023-04-27T05:26:32.889Z,400.00
2023-04-27T05:27:32.962Z,400.00
2023-04-27T05:28:33.031Z,400.00
2023-04-27T05:29:32.078Z,400.00
2023-04-27T05:30:32.145Z,400.00
2023-04-27T05:31:33.231Z,412.00
2023-04-27T05:32:32.264Z,457.00
2023-04-27T05:33:32.298Z,501.00
2023-04-27T05:34:32.360Z,506.00
2023-04-27T05:35:32.447Z,499.00
2023-04-27T05:36:33.490Z,502.00
2023-04-27T05:37:32.508Z,504.00
2023-04-27T05:38:32.560Z,515.00
2023-04-27T05:39:33.589Z,503.00
2023-04-27T05:40:32.620Z,535.00
2023-04-27T05:41:33.663Z,541.00
2023-04-27T05:42:32.674Z,535.00
2023-04-27T05:43:33.718Z,541.00
2023-04-27T05:44:32.724Z,548.00
2023-04-27T05:45:33.805Z,564.00
2023-04-27T05:46:32.709Z,576.00
2023-04-27T05:47:32.808Z,581.00
2023-04-27T05:48:33.721Z,583.00
2023-04-27T05:49:33.734Z,583.00
2023-04-27T05:50:32.750Z,511.00
2023-04-27T05:51:32.803Z,500.00
2023-04-27T05:52:34.976Z,512.00
2023-04-27T05:53:33.791Z,503.00
2023-04-27T05:54:33.796Z,500.00
2023-04-27T05:55:32.792Z,500.00
2023-04-27T05:56:32.771Z,508.00
2023-04-27T05:57:32.787Z,515.00
2023-04-27T05:58:33.798Z,515.00
2023-04-27T05:59:32.756Z,528.00
2023-04-27T06:00:33.736Z,502.00
2023-04-27T06:01:33.745Z,500.00
2023-04-27T06:02:32.872Z,503.00
2023-04-27T06:03:34.529Z,500.00
2023-04-27T06:04:33.774Z,509.00
2023-04-27T06:05:33.784Z,502.00
2023-04-27T06:06:32.695Z,497.00
2023-04-27T06:07:32.733Z,501.00
2023-04-27T06:08:32.710Z,505.00
2023-04-27T06:09:33.696Z,506.00
2023-04-27T06:10:33.678Z,500.00
2023-04-27T06:11:33.685Z,501.00
2023-04-27T06:12:33.708Z,500.00
2023-04-27T06:13:33.676Z,504.00
2023-04-27T06:14:32.658Z,500.00
2023-04-27T06:15:32.762Z,505.00
2023-04-27T06:16:33.721Z,505.00
2023-04-27T06:17:33.658Z,507.00
2023-04-27T06:18:32.635Z,510.00
2023-04-27T06:19:33.615Z,504.00
2023-04-27T06:20:33.610Z,511.00
2023-04-27T06:21:33.613Z,515.00
2023-04-27T06:22:33.610Z,506.00
2023-04-27T06:23:32.635Z,510.00
2023-04-27T06:24:32.586Z,513.00
2023-04-27T06:25:33.588Z,524.00
2023-04-27T06:26:32.605Z,517.00
2023-04-27T06:27:32.648Z,519.00
2023-04-27T06:28:32.689Z,517.00
2023-04-27T06:29:33.730Z,520.00
2023-04-27T06:30:32.817Z,520.00
2023-04-27T06:31:33.901Z,522.00
2023-04-27T06:32:33.955Z,529.00
2023-04-27T06:33:34.004Z,526.00
2023-04-27T06:34:34.064Z,531.00
2023-04-27T06:35:34.117Z,531.00
2023-04-27T06:36:33.147Z,527.00
2023-04-27T06:37:34.206Z,531.00
2023-04-27T06:38:34.245Z,539.00
2023-04-27T06:39:34.398Z,536.00
2023-04-27T06:40:34.328Z,536.00
2023-04-27T06:41:34.416Z,536.00
2023-04-27T06:42:34.473Z,542.00
2023-04-27T06:43:33.475Z,544.00
2023-04-27T06:44:34.526Z,541.00
2023-04-27T06:45:34.556Z,544.00
2023-04-27T06:46:34.689Z,548.00
2023-04-27T06:47:33.623Z,552.00
2023-04-27T06:48:34.667Z,545.00
2023-04-27T06:49:34.691Z,547.00
2023-04-27T06:50:33.733Z,553.00
2023-04-27T06:51:33.761Z,555.00
2023-04-27T06:52:34.804Z,550.00
2023-04-27T06:53:35.224Z,557.00
2023-04-27T06:54:33.883Z,561.00
2023-04-27T06:55:34.968Z,576.00
2023-04-27T06:56:35.018Z,568.00
2023-04-27T06:57:34.026Z,579.00
2023-04-27T06:58:35.077Z,592.00
2023-04-27T06:59:34.107Z,604.00
2023-04-27T07:00:34.116Z,617.00
2023-04-27T07:01:35.207Z,624.00
2023-04-27T07:02:34.206Z,632.00
2023-04-27T07:03:35.344Z,641.00
2023-04-27T07:04:35.151Z,652.00
2023-04-27T07:05:35.149Z,665.00
2023-04-27T07:06:35.186Z,663.00
2023-04-27T07:07:35.240Z,687.00
2023-04-27T07:08:34.283Z,705.00
2023-04-27T07:09:34.479Z,728.00
2023-04-27T07:10:34.593Z,759.00
2023-04-27T07:11:34.492Z,781.00
2023-04-27T07:12:35.528Z,797.00
2023-04-27T07:13:35.592Z,809.00
2023-04-27T07:14:35.622Z,814.00
2023-04-27T07:15:34.686Z,835.00
2023-04-27T07:16:35.829Z,853.00
2023-04-27T07:17:35.779Z,869.00
2023-04-27T07:18:35.902Z,894.00
2023-04-27T07:19:34.842Z,890.00
2023-04-27T07:20:35.865Z,899.00
2023-04-27T07:21:35.913Z,918.00
2023-04-27T07:22:35.951Z,933.00
2023-04-27T07:23:34.992Z,938.00
2023-04-27T07:24:36.013Z,953.00
2023-04-27T07:25:36.034Z,966.00
2023-04-27T07:26:36.054Z,982.00
2023-04-27T07:27:35.140Z,990.00
2023-04-27T07:28:36.093Z,1005.00
2023-04-27T07:29:36.118Z,1008.00
2023-04-27T07:30:35.127Z,1032.00
2023-04-27T07:31:35.221Z,1031.00
2023-04-27T07:32:35.276Z,1044.00
2023-04-27T07:33:35.212Z,1064.00
2023-04-27T07:34:49.098Z,1080.00
2023-04-27T07:35:36.244Z,1082.00
2023-04-27T07:36:35.208Z,1085.00
2023-04-27T07:37:36.200Z,1092.00
2023-04-27T07:38:35.219Z,1108.00
2023-04-27T07:39:36.188Z,1130.00
2023-04-27T07:40:36.209Z,1142.00
2023-04-27T07:41:36.189Z,1149.00
2023-04-27T07:42:36.186Z,1167.00
2023-04-27T07:43:36.209Z,1159.00
2023-04-27T07:44:35.152Z,1185.00
2023-04-27T07:45:35.192Z,1176.00
2023-04-27T07:46:35.143Z,1177.00
2023-04-27T07:47:35.175Z,1187.00
2023-04-27T07:48:36.253Z,1211.00
2023-04-27T07:49:35.126Z,1220.00
2023-04-27T07:50:35.130Z,1229.00
2023-04-27T07:51:36.109Z,1246.00
2023-04-27T07:52:36.113Z,1174.00
2023-04-27T07:53:36.260Z,1239.00
2023-04-27T07:54:35.099Z,1200.00
2023-04-27T07:55:35.103Z,1165.00
2023-04-27T07:56:36.166Z,1193.00
2023-04-27T07:57:35.213Z,1194.00
2023-04-27T07:58:36.288Z,1188.00
2023-04-27T07:59:36.362Z,835.00
2023-04-27T08:00:35.410Z,808.00
2023-04-27T08:01:35.440Z,726.00
2023-04-27T08:02:36.692Z,658.00
2023-04-27T08:03:35.848Z,620.00
2023-04-27T08:04:36.856Z,612.00
2023-04-27T08:05:36.932Z,631.00
2023-04-27T08:06:35.954Z,600.00
2023-04-27T08:07:39.567Z,598.00
2023-04-27T08:08:36.507Z,598.00
2023-04-27T08:09:35.498Z,584.00
2023-04-27T08:10:36.501Z,577.00
2023-04-27T08:11:35.478Z,547.00
2023-04-27T08:12:36.468Z,594.00
2023-04-27T08:13:36.512Z,643.00
2023-04-27T08:14:36.459Z,645.00
2023-04-27T08:15:36.477Z,651.00
2023-04-27T08:16:36.492Z,652.00
2023-04-27T08:17:36.520Z,652.00
2023-04-27T08:18:36.430Z,659.00
2023-04-27T08:19:36.422Z,663.00
2023-04-27T08:20:35.404Z,687.00
2023-04-27T08:21:36.408Z,703.00
2023-04-27T08:22:36.401Z,728.00
2023-04-27T08:23:36.392Z,751.00
2023-04-27T08:24:36.442Z,755.00
2023-04-27T08:25:36.424Z,793.00
2023-04-27T08:26:35.440Z,827.00
2023-04-27T08:27:36.459Z,857.00
2023-04-27T08:28:36.467Z,863.00
2023-04-27T08:29:36.469Z,895.00
2023-04-27T08:30:36.487Z,921.00
2023-04-27T08:31:35.685Z,959.00
2023-04-27T08:32:35.654Z,978.00
2023-04-27T08:33:36.671Z,1006.00
2023-04-27T08:34:36.698Z,1014.00
2023-04-27T08:35:36.770Z,1033.00
2023-04-27T08:36:35.783Z,1039.00
2023-04-27T08:37:36.828Z,1068.00
2023-04-27T08:38:36.880Z,1089.00
2023-04-27T08:39:36.907Z,1102.00
2023-04-27T08:40:36.947Z,1122.00
2023-04-27T08:41:36.954Z,1160.00
2023-04-27T08:42:36.013Z,1184.00
2023-04-27T08:43:37.355Z,1211.00
2023-04-27T08:44:37.099Z,1195.00
2023-04-27T08:45:36.139Z,1227.00
2023-04-27T08:46:37.193Z,1235.00
2023-04-27T08:47:43.442Z,1277.00
2023-04-27T08:48:37.258Z,1277.00
2023-04-27T08:49:37.244Z,1283.00
2023-04-27T08:50:37.185Z,1294.00
2023-04-27T08:51:37.172Z,1299.00
2023-04-27T08:52:37.198Z,1334.00
2023-04-27T08:53:36.169Z,1356.00
2023-04-27T08:54:37.168Z,1363.00
2023-04-27T08:55:37.222Z,1364.00
2023-04-27T08:56:36.149Z,1374.00
2023-04-27T08:57:37.147Z,1406.00
2023-04-27T08:58:37.122Z,1415.00
2023-04-27T08:59:37.153Z,1430.00
2023-04-27T09:00:36.117Z,1435.00
2023-04-27T09:01:37.160Z,1438.00
2023-04-27T09:02:37.246Z,1450.00
2023-04-27T09:03:37.319Z,1434.00
2023-04-27T09:04:36.383Z,1433.00
2023-04-27T09:05:37.319Z,1466.00
2023-04-27T09:06:36.450Z,1459.00
2023-04-27T09:07:37.355Z,1476.00
2023-04-27T09:08:37.407Z,1478.00
2023-04-27T09:09:37.424Z,1491.00
2023-04-27T09:10:37.456Z,1489.00
2023-04-27T09:11:36.509Z,1511.00
2023-04-27T09:12:37.530Z,1534.00
2023-04-27T09:13:37.579Z,1540.00
2023-04-27T09:14:36.639Z,1553.00
2023-04-27T09:15:37.641Z,1545.00
2023-04-27T09:16:37.719Z,1561.00
2023-04-27T09:17:37.741Z,1546.00
2023-04-27T09:18:36.724Z,1557.00
2023-04-27T09:19:37.871Z,1566.00
2023-04-27T09:20:37.781Z,1576.00
2023-04-27T09:21:37.786Z,1573.00
2023-04-27T09:22:37.804Z,1578.00
2023-04-27T09:23:37.834Z,1599.00
2023-04-27T09:24:36.897Z,1597.00
2023-04-27T09:25:37.915Z,1607.00
2023-04-27T09:26:36.970Z,1633.00
2023-04-27T09:27:37.010Z,1613.00
2023-04-27T09:28:38.076Z,1625.00
2023-04-27T09:29:38.137Z,1657.00
2023-04-27T09:30:38.172Z,1655.00
2023-04-27T09:31:38.237Z,1660.00
2023-04-27T09:32:37.231Z,1657.00
2023-04-27T09:33:38.244Z,1667.00
2023-04-27T09:34:38.281Z,1670.00
2023-04-27T09:35:37.333Z,1679.00
2023-04-27T09:36:38.344Z,1668.00
2023-04-27T09:37:38.378Z,1700.00
2023-04-27T09:38:37.458Z,1691.00
2023-04-27T09:39:38.481Z,1719.00
2023-04-27T09:40:38.502Z,1709.00
2023-04-27T09:41:38.487Z,1729.00
2023-04-27T09:42:37.497Z,1714.00
2023-04-27T09:43:38.485Z,1728.00
2023-04-27T09:44:38.575Z,1737.00
2023-04-27T09:45:37.611Z,1753.00
2023-04-27T09:46:37.561Z,1739.00
2023-04-27T09:47:38.653Z,1770.00
2023-04-27T09:48:38.666Z,1748.00
2023-04-27T09:49:38.840Z,1728.00
2023-04-27T09:50:38.628Z,1734.00
2023-04-27T09:51:38.695Z,1742.00
2023-04-27T09:52:38.736Z,1735.00
2023-04-27T09:53:38.811Z,1739.00
2023-04-27T09:54:37.891Z,1741.00
2023-04-27T09:55:37.873Z,1714.00
2023-04-27T09:56:38.887Z,1731.00
2023-04-27T09:57:38.898Z,1735.00
2023-04-27T09:58:38.916Z,1740.00
2023-04-27T09:59:37.925Z,1721.00
2023-04-27T10:00:38.927Z,1730.00
2023-04-27T10:01:39.045Z,1718.00
2023-04-27T10:02:52.207Z,1735.00
2023-04-27T10:03:39.083Z,1736.00
2023-04-27T10:04:39.147Z,1728.00
2023-04-27T10:05:37.971Z,1719.00
2023-04-27T10:06:38.954Z,1736.00
2023-04-27T10:07:38.967Z,1723.00
2023-04-27T10:08:38.955Z,1720.00
2023-04-27T10:09:38.925Z,1707.00
2023-04-27T10:10:37.926Z,1708.00
2023-04-27T10:11:37.926Z,1706.00
2023-04-27T10:12:38.907Z,1694.00
2023-04-27T10:13:38.892Z,1690.00
2023-04-27T10:14:37.889Z,1695.00
2023-04-27T10:15:38.916Z,1689.00
2023-04-27T10:16:37.954Z,1685.00
2023-04-27T10:17:38.979Z,1672.00
2023-04-27T10:18:38.991Z,1677.00
2023-04-27T10:19:39.026Z,1667.00
2023-04-27T10:20:39.071Z,1670.00
2023-04-27T10:21:39.117Z,1660.00
2023-04-27T10:22:39.420Z,1660.00
2023-04-27T10:23:38.213Z,1658.00
2023-04-27T10:24:39.242Z,1654.00
2023-04-27T10:25:39.283Z,1622.00
2023-04-27T10:26:39.990Z,1643.00
2023-04-27T10:27:39.354Z,1632.00
2023-04-27T10:28:39.400Z,1636.00
2023-04-27T10:29:39.438Z,1646.00
2023-04-27T10:30:39.688Z,1621.00
2023-04-27T10:31:39.505Z,1633.00
2023-04-27T10:32:38.635Z,1625.00
2023-04-27T10:33:38.605Z,1626.00
2023-04-27T10:34:39.624Z,1624.00
2023-04-27T10:35:38.665Z,1605.00
2023-04-27T10:36:39.717Z,1614.00
2023-04-27T10:37:39.736Z,1605.00
2023-04-27T10:38:39.805Z,1625.00
2023-04-27T10:39:47.025Z,1589.00
2023-04-27T10:40:39.823Z,1591.00
2023-04-27T10:41:38.804Z,1597.00
2023-04-27T10:42:39.792Z,1602.00
2023-04-27T10:43:38.784Z,1605.00
2023-04-27T10:44:39.818Z,1621.00
2023-04-27T10:45:39.783Z,1598.00
2023-04-27T10:46:39.817Z,1613.00
2023-04-27T10:47:38.859Z,1592.00
2023-04-27T10:48:38.750Z,1608.00
2023-04-27T10:49:38.744Z,1601.00
2023-04-27T10:50:38.745Z,1594.00
2023-04-27T10:51:39.743Z,1597.00
2023-04-27T10:52:38.747Z,1578.00
2023-04-27T10:53:38.735Z,1567.00
2023-04-27T10:54:39.736Z,1585.00
2023-04-27T10:55:38.707Z,1592.00
2023-04-27T10:56:39.688Z,1582.00
2023-04-27T10:57:39.688Z,1570.00
2023-04-27T10:59:38.704Z,1575.00
2023-04-27T11:00:38.671Z,1577.00
2023-04-27T11:01:39.705Z,1580.00
2023-04-27T11:02:38.695Z,1578.00
2023-04-27T11:03:39.941Z,1565.00
2023-04-27T11:04:39.703Z,1581.00
2023-04-27T11:05:39.651Z,1570.00
2023-04-27T11:06:39.650Z,1570.00
2023-04-27T11:07:39.644Z,1559.00
2023-04-27T11:08:38.605Z,1575.00
2023-04-27T11:09:39.640Z,1549.00
2023-04-27T11:10:38.612Z,1565.00
2023-04-27T11:11:39.644Z,1556.00
2023-04-27T11:12:39.570Z,1551.00
2023-04-27T11:13:38.605Z,1555.00
2023-04-27T11:14:38.558Z,1558.00
2023-04-27T11:15:39.582Z,1544.00
2023-04-27T11:16:39.636Z,1545.00
2023-04-27T11:17:39.571Z,1551.00
2023-04-27T11:18:38.561Z,1548.00
2023-04-27T11:19:38.550Z,1553.00
2023-04-27T11:20:38.610Z,1548.00
2023-04-27T11:21:39.647Z,1544.00
2023-04-27T11:22:38.693Z,1547.00
2023-04-27T11:23:38.786Z,1555.00
2023-04-27T11:24:40.098Z,1559.00
2023-04-27T11:25:38.867Z,1543.00
2023-04-27T11:26:39.959Z,1551.00
2023-04-27T11:27:40.004Z,1542.00
2023-04-27T11:28:39.079Z,1539.00
2023-04-27T11:29:40.100Z,1557.00
2023-04-27T11:30:39.161Z,1548.00
2023-04-27T11:31:39.242Z,1563.00
2023-04-27T11:32:39.299Z,1590.00
2023-04-27T11:33:40.325Z,1608.00
2023-04-27T11:34:40.386Z,1646.00
2023-04-27T11:35:39.465Z,1665.00
2023-04-27T11:36:40.522Z,1664.00
2023-04-27T11:37:40.564Z,1707.00
2023-04-27T11:38:39.689Z,1697.00
2023-04-27T11:39:39.701Z,1696.00
2023-04-27T11:40:39.755Z,1694.00
2023-04-27T11:41:40.813Z,1703.00
2023-04-27T11:42:40.936Z,1672.00
2023-04-27T11:43:40.956Z,1700.00
2023-04-27T11:44:40.998Z,1712.00
2023-04-27T11:45:40.074Z,1712.00
2023-04-27T11:46:41.177Z,1701.00
2023-04-27T11:47:41.203Z,1687.00
2023-04-27T11:48:41.238Z,1705.00
2023-04-27T11:49:40.296Z,1688.00
2023-04-27T11:50:41.362Z,1699.00
2023-04-27T11:51:41.429Z,1699.00
2023-04-27T11:52:40.490Z,1690.00
2023-04-27T11:53:40.618Z,1692.00
2023-04-27T11:54:41.601Z,1687.00
2023-04-27T11:55:41.686Z,1688.00
2023-04-27T11:56:41.734Z,1694.00
2023-04-27T11:57:41.811Z,1675.00
2023-04-27T11:58:40.885Z,1656.00
2023-04-27T11:59:40.916Z,1693.00
2023-04-27T12:00:41.970Z,1688.00
2023-04-27T12:01:42.044Z,1683.00
2023-04-27T12:02:41.390Z,1668.00
2023-04-27T12:03:41.262Z,1664.00
2023-04-27T12:04:41.374Z,1680.00
2023-04-27T12:05:42.223Z,1667.00
2023-04-27T12:06:42.241Z,1654.00
2023-04-27T12:07:42.278Z,1670.00
2023-04-27T12:08:42.301Z,1663.00
2023-04-27T12:09:41.342Z,1657.00
2023-04-27T12:10:42.426Z,1653.00
2023-04-27T12:11:41.423Z,1638.00
2023-04-27T12:12:41.487Z,1646.00
2023-04-27T12:13:42.524Z,1653.00
2023-04-27T12:14:42.571Z,1645.00
2023-04-27T12:15:41.588Z,1632.00
2023-04-27T12:16:41.648Z,1632.00
2023-04-27T12:17:41.704Z,1628.00
2023-04-27T12:18:42.728Z,1627.00
2023-04-27T12:19:42.739Z,1636.00
2023-04-27T12:20:41.788Z,1621.00
2023-04-27T12:21:42.849Z,1635.00
2023-04-27T12:22:42.915Z,1624.00
2023-04-27T12:23:42.974Z,1615.00
2023-04-27T12:24:42.962Z,1625.00
2023-04-27T12:25:42.003Z,1618.00
2023-04-27T12:26:43.061Z,1616.00
2023-04-27T12:27:43.101Z,1606.00
2023-04-27T12:28:43.133Z,1453.00
2023-04-27T12:29:42.159Z,1150.00
2023-04-27T12:30:42.220Z,950.00
2023-04-27T12:31:43.273Z,785.00
2023-04-27T12:32:42.301Z,682.00
2023-04-27T12:33:43.321Z,656.00
2023-04-27T12:34:42.364Z,574.00
2023-04-27T12:35:43.865Z,504.00
2023-04-27T12:36:43.372Z,489.00
2023-04-27T12:37:43.406Z,489.00
2023-04-27T12:38:42.444Z,497.00
2023-04-27T12:39:42.506Z,494.00
2023-04-27T12:40:43.572Z,495.00
2023-04-27T12:41:42.628Z,500.00
2023-04-27T12:42:43.683Z,497.00
2023-04-27T12:43:42.690Z,504.00
2023-04-27T12:44:43.696Z,502.00
2023-04-27T12:45:43.734Z,507.00
2023-04-27T12:46:43.813Z,504.00
2023-04-27T12:47:58.676Z,530.00
2023-04-27T12:48:43.841Z,533.00
2023-04-27T12:49:42.773Z,549.00
2023-04-27T12:50:43.769Z,591.00
2023-04-27T12:51:42.760Z,639.00
2023-04-27T12:52:43.757Z,702.00
2023-04-27T12:53:43.759Z,730.00
2023-04-27T12:54:43.755Z,736.00
2023-04-27T12:55:42.750Z,777.00
2023-04-27T12:56:43.733Z,790.00
2023-04-27T12:57:43.719Z,827.00
2023-04-27T12:58:42.704Z,839.00
2023-04-27T12:59:42.713Z,885.00
2023-04-27T13:00:43.692Z,905.00
2023-04-27T13:01:43.734Z,961.00
2023-04-27T13:02:42.863Z,981.00
2023-04-27T13:03:43.938Z,1000.00
2023-04-27T13:04:43.927Z,1035.00
2023-04-27T13:05:43.899Z,1132.00
2023-04-27T13:06:43.944Z,1176.00
2023-04-27T13:07:42.998Z,1205.00
2023-04-27T13:08:44.000Z,1233.00
2023-04-27T13:09:44.056Z,1247.00
2023-04-27T13:10:43.074Z,1294.00
2023-04-27T13:11:44.088Z,1304.00
2023-04-27T13:12:43.131Z,1324.00
2023-04-27T13:13:44.162Z,1345.00
2023-04-27T13:14:44.190Z,1373.00
2023-04-27T13:15:43.331Z,1349.00
2023-04-27T13:16:44.245Z,1378.00
2023-04-27T13:17:44.021Z,1377.00
2023-04-27T13:18:43.305Z,1385.00
2023-04-27T13:19:44.307Z,1400.00
2023-04-27T13:20:43.332Z,1408.00
2023-04-27T13:21:43.346Z,1415.00
2023-04-27T13:22:44.356Z,1442.00
2023-04-27T13:23:43.398Z,1452.00
2023-04-27T13:24:43.404Z,1460.00
2023-04-27T13:25:44.428Z,1469.00
2023-04-27T13:26:44.653Z,1473.00
2023-04-27T13:27:43.426Z,1471.00
2023-04-27T13:28:44.450Z,1470.00
2023-04-27T13:29:44.470Z,1486.00
2023-04-27T13:30:43.492Z,1488.00
2023-04-27T13:31:43.523Z,1484.00
2023-04-27T13:32:44.523Z,1486.00
2023-04-27T13:33:43.478Z,1480.00
2023-04-27T13:34:44.522Z,1494.00
2023-04-27T13:35:44.492Z,1496.00
2023-04-27T13:36:44.524Z,1470.00
2023-04-27T13:37:44.538Z,1483.00
2023-04-27T13:38:44.524Z,1482.00
2023-04-27T13:39:44.528Z,1476.00
2023-04-27T13:40:44.538Z,1477.00
2023-04-27T13:41:43.548Z,1459.00
2023-04-27T13:42:43.558Z,1465.00
2023-04-27T13:43:43.596Z,1466.00
2023-04-27T13:44:43.569Z,1450.00
2023-04-27T13:45:43.579Z,1444.00
2023-04-27T13:46:43.651Z,1456.00
2023-04-27T13:47:44.616Z,1438.00
2023-04-27T13:48:44.586Z,1441.00
2023-04-27T13:49:44.605Z,1446.00
2023-04-27T13:50:44.638Z,1441.00
2023-04-27T13:51:43.622Z,1444.00
2023-04-27T13:52:44.622Z,1437.00
2023-04-27T13:53:44.676Z,1441.00
2023-04-27T13:54:43.632Z,1439.00
2023-04-27T13:55:44.640Z,1431.00
2023-04-27T13:56:43.649Z,1435.00
2023-04-27T13:57:43.651Z,1428.00
2023-04-27T13:58:43.692Z,1428.00
2023-04-27T13:59:43.648Z,1429.00
2023-04-27T14:00:44.701Z,1444.00
2023-04-27T14:01:43.803Z,1419.00
2023-04-27T14:02:44.760Z,1411.00
2023-04-27T14:03:44.071Z,1435.00
2023-04-27T14:04:44.718Z,1406.00
2023-04-27T14:05:43.671Z,1422.00
2023-04-27T14:06:44.709Z,1401.00
2023-04-27T14:07:44.680Z,1410.00
2023-04-27T14:08:43.695Z,1404.00
2023-04-27T14:09:44.690Z,1390.00
2023-04-27T14:10:43.685Z,1398.00
2023-04-27T14:11:55.766Z,1391.00
2023-04-27T14:12:44.669Z,1393.00
2023-04-27T14:13:44.684Z,1395.00
2023-04-27T14:14:43.669Z,1398.00
2023-04-27T14:15:43.649Z,1401.00
2023-04-27T14:16:44.713Z,1392.00
2023-04-27T14:17:43.675Z,1399.00
2023-04-27T14:18:44.649Z,1391.00
2023-04-27T14:19:43.628Z,1392.00
2023-04-27T14:20:43.640Z,1370.00
2023-04-27T14:21:43.619Z,1379.00
2023-04-27T14:22:44.636Z,1368.00
2023-04-27T14:23:43.598Z,1370.00
2023-04-27T14:24:44.596Z,1374.00
2023-04-27T14:25:43.576Z,1376.00
2023-04-27T14:26:44.578Z,1366.00
2023-04-27T14:27:44.582Z,1368.00
2023-04-27T14:28:44.558Z,1366.00
2023-04-27T14:29:44.558Z,1371.00
2023-04-27T14:30:44.549Z,1363.00
2023-04-27T14:31:44.563Z,1362.00
2023-04-27T14:32:43.586Z,1359.00
2023-04-27T14:33:43.524Z,1364.00
2023-04-27T14:34:44.517Z,1357.00
2023-04-27T14:35:44.514Z,1358.00
2023-04-27T14:36:44.517Z,1368.00
2023-04-27T14:37:44.514Z,1357.00
2023-04-27T14:38:43.516Z,1338.00
2023-04-27T14:39:45.268Z,1373.00
2023-04-27T14:40:43.484Z,1359.00
2023-04-27T14:41:44.476Z,1334.00
2023-04-27T14:42:43.476Z,1350.00
2023-04-27T14:43:43.454Z,1358.00
2023-04-27T14:44:43.452Z,1355.00
2023-04-27T14:45:51.529Z,1333.00
2023-04-27T14:46:44.477Z,1334.00
2023-04-27T14:47:44.462Z,1337.00
2023-04-27T14:48:44.422Z,1335.00
2023-04-27T14:49:44.428Z,1342.00
2023-04-27T14:50:43.425Z,1326.00
2023-04-27T14:51:43.758Z,1331.00
2023-04-27T14:52:43.394Z,1311.00
2023-04-27T14:53:43.389Z,1331.00
2023-04-27T14:54:44.420Z,1315.00
2023-04-27T14:55:44.380Z,1320.00
2023-04-27T14:56:43.388Z,1300.00
2023-04-27T14:57:43.359Z,1321.00
2023-04-27T14:58:44.367Z,1300.00
2023-04-27T14:59:44.362Z,1297.00
2023-04-27T15:00:43.344Z,1291.00
2023-04-27T15:01:44.359Z,1294.00
2023-04-27T15:02:44.406Z,1302.00
2023-04-27T15:03:44.523Z,1293.00
2023-04-27T15:04:44.457Z,1283.00
2023-04-27T15:05:43.308Z,1269.00
2023-04-27T15:06:43.302Z,1268.00
2023-04-27T15:07:44.308Z,1269.00
2023-04-27T15:08:44.277Z,1259.00
2023-04-27T15:09:43.275Z,1249.00
2023-04-27T15:10:44.285Z,1260.00
2023-04-27T15:11:43.256Z,1257.00
2023-04-27T15:12:43.255Z,1254.00
2023-04-27T15:13:43.233Z,1243.00
2023-04-27T15:14:43.226Z,1247.00
2023-04-27T15:15:43.307Z,1254.00
2023-04-27T15:16:43.311Z,1253.00
2023-04-27T15:17:44.216Z,1247.00
2023-04-27T15:18:43.206Z,1237.00
2023-04-27T15:19:44.187Z,1242.00
2023-04-27T15:20:44.714Z,1241.00
2023-04-27T15:21:43.185Z,1235.00
2023-04-27T15:22:43.167Z,1256.00
2023-04-27T15:23:44.227Z,1238.00
2023-04-27T15:24:44.170Z,1242.00
2023-04-27T15:25:43.165Z,1227.00
2023-04-27T15:26:44.180Z,1228.00
2023-04-27T15:27:43.144Z,1224.00
2023-04-27T15:28:43.163Z,1228.00
2023-04-27T15:29:43.134Z,1220.00
